sensor_id;sensor_type;location;lat;lon;timestamp;P1;durP1;ratioP1;P2;durP2;ratioP2
3379;SDS011;1703;51.964;7.642;2023-03-20T00:00:13;40.57;;;19.20;;
3379;SDS011;1703;51.964;7.642;2023-03-20T00:02:44;40.07;;;18.97;;
3379;SDS011;1703;51.964;7.642;2023-03-20T00:05:15;41.67;;;18.60;;
3379;SDS011;1703;51.964;7.642;2023-03-20T00:07:44;37.70;;;16.77;;
3379;SDS011;1703;51.964;7.642;2023-03-20T00:10:11;35.20;;;18.97;;
3379;SDS011;1703;51.964;7.642;2023-03-20T00:12:38;39.00;;;18.43;;
3379;SDS011;1703;51.964;7.642;2023-03-20T00:15:06;47.10;;;18.80;;
3379;SDS011;1703;51.964;7.642;2023-03-20T00:17:53;33.87;;;17.60;;
3379;SDS011;1703;51.964;7.642;2023-03-20T00:20:20;33.93;;;16.67;;
3379;SDS011;1703;51.964;7.642;2023-03-20T00:22:48;35.77;;;17.40;;
3379;SDS011;1703;51.964;7.642;2023-03-20T00:25:16;39.43;;;19.03;;
3379;SDS011;1703;51.964;7.642;2023-03-20T00:27:44;38.13;;;20.30;;
3379;SDS011;1703;51.964;7.642;2023-03-20T00:30:17;36.30;;;17.30;;
3379;SDS011;1703;51.964;7.642;2023-03-20T00:32:53;39.10;;;20.30;;
3379;SDS011;1703;51.964;7.642;2023-03-20T00:35:22;40.83;;;19.57;;
3379;SDS011;1703;51.964;7.642;2023-03-20T00:37:52;36.40;;;20.50;;
3379;SDS011;1703;51.964;7.642;2023-03-20T00:40:19;42.00;;;20.60;;
3379;SDS011;1703;51.964;7.642;2023-03-20T00:42:48;41.50;;;21.53;;
3379;SDS011;1703;51.964;7.642;2023-03-20T00:45:17;45.87;;;23.10;;
3379;SDS011;1703;51.964;7.642;2023-03-20T00:47:46;39.77;;;17.13;;
3379;SDS011;1703;51.964;7.642;2023-03-20T00:50:17;38.87;;;21.47;;
3379;SDS011;1703;51.964;7.642;2023-03-20T00:52:47;38.27;;;21.20;;
3379;SDS011;1703;51.964;7.642;2023-03-20T00:55:15;43.90;;;20.77;;
3379;SDS011;1703;51.964;7.642;2023-03-20T00:57:42;46.70;;;22.23;;
3379;SDS011;1703;51.964;7.642;2023-03-20T01:00:22;42.70;;;22.27;;
3379;SDS011;1703;51.964;7.642;2023-03-20T01:02:52;42.27;;;20.60;;
3379;SDS011;1703;51.964;7.642;2023-03-20T01:05:24;48.03;;;21.70;;
3379;SDS011;1703;51.964;7.642;2023-03-20T01:07:52;46.50;;;20.93;;
3379;SDS011;1703;51.964;7.642;2023-03-20T01:10:20;52.17;;;23.80;;
3379;SDS011;1703;51.964;7.642;2023-03-20T01:12:49;42.93;;;23.20;;
3379;SDS011;1703;51.964;7.642;2023-03-20T01:15:18;52.67;;;24.07;;
3379;SDS011;1703;51.964;7.642;2023-03-20T01:17:46;52.13;;;24.90;;
3379;SDS011;1703;51.964;7.642;2023-03-20T01:20:14;48.43;;;24.17;;
3379;SDS011;1703;51.964;7.642;2023-03-20T01:22:44;46.60;;;24.20;;
3379;SDS011;1703;51.964;7.642;2023-03-20T01:25:11;59.57;;;26.20;;
3379;SDS011;1703;51.964;7.642;2023-03-20T01:27:38;49.73;;;24.90;;
3379;SDS011;1703;51.964;7.642;2023-03-20T01:30:13;44.10;;;27.07;;
3379;SDS011;1703;51.964;7.642;2023-03-20T01:32:43;42.80;;;24.40;;
3379;SDS011;1703;51.964;7.642;2023-03-20T01:35:11;53.70;;;26.83;;
3379;SDS011;1703;51.964;7.642;2023-03-20T01:37:39;51.57;;;27.97;;
3379;SDS011;1703;51.964;7.642;2023-03-20T01:40:12;46.47;;;27.70;;
3379;SDS011;1703;51.964;7.642;2023-03-20T01:42:46;59.37;;;28.43;;
3379;SDS011;1703;51.964;7.642;2023-03-20T01:45:14;50.50;;;27.23;;
3379;SDS011;1703;51.964;7.642;2023-03-20T01:47:43;55.73;;;28.27;;
3379;SDS011;1703;51.964;7.642;2023-03-20T01:50:24;52.13;;;28.43;;
3379;SDS011;1703;51.964;7.642;2023-03-20T01:53:06;53.07;;;28.27;;
3379;SDS011;1703;51.964;7.642;2023-03-20T01:55:44;46.93;;;27.07;;
3379;SDS011;1703;51.964;7.642;2023-03-20T01:58:15;59.77;;;31.30;;
3379;SDS011;1703;51.964;7.642;2023-03-20T02:00:45;50.27;;;28.67;;
3379;SDS011;1703;51.964;7.642;2023-03-20T02:03:15;48.83;;;25.60;;
3379;SDS011;1703;51.964;7.642;2023-03-20T02:06:04;54.23;;;26.07;;
3379;SDS011;1703;51.964;7.642;2023-03-20T02:08:55;45.13;;;25.57;;
3379;SDS011;1703;51.964;7.642;2023-03-20T02:11:25;63.57;;;29.60;;
3379;SDS011;1703;51.964;7.642;2023-03-20T02:13:54;47.80;;;24.70;;
3379;SDS011;1703;51.964;7.642;2023-03-20T02:16:28;45.43;;;23.83;;
3379;SDS011;1703;51.964;7.642;2023-03-20T02:19:14;53.67;;;27.97;;
3379;SDS011;1703;51.964;7.642;2023-03-20T02:22:02;51.10;;;26.33;;
3379;SDS011;1703;51.964;7.642;2023-03-20T02:28:09;48.27;;;24.63;;
3379;SDS011;1703;51.964;7.642;2023-03-20T02:31:00;51.07;;;24.70;;
3379;SDS011;1703;51.964;7.642;2023-03-20T02:33:56;59.60;;;27.70;;
3379;SDS011;1703;51.964;7.642;2023-03-20T02:39:50;61.17;;;27.40;;
3379;SDS011;1703;51.964;7.642;2023-03-20T02:42:27;49.50;;;26.80;;
3379;SDS011;1703;51.964;7.642;2023-03-20T02:45:02;44.83;;;25.07;;
3379;SDS011;1703;51.964;7.642;2023-03-20T02:47:40;53.30;;;28.23;;
3379;SDS011;1703;51.964;7.642;2023-03-20T02:50:18;61.73;;;27.03;;
3379;SDS011;1703;51.964;7.642;2023-03-20T02:52:55;46.57;;;24.73;;
3379;SDS011;1703;51.964;7.642;2023-03-20T02:55:31;44.57;;;24.33;;
3379;SDS011;1703;51.964;7.642;2023-03-20T02:58:07;42.27;;;22.97;;
3379;SDS011;1703;51.964;7.642;2023-03-20T03:00:41;50.43;;;25.00;;
3379;SDS011;1703;51.964;7.642;2023-03-20T03:03:16;42.77;;;24.00;;
3379;SDS011;1703;51.964;7.642;2023-03-20T03:05:47;43.47;;;23.20;;
3379;SDS011;1703;51.964;7.642;2023-03-20T03:08:19;48.90;;;23.97;;
3379;SDS011;1703;51.964;7.642;2023-03-20T03:10:50;42.77;;;21.63;;
3379;SDS011;1703;51.964;7.642;2023-03-20T03:13:22;37.40;;;23.10;;
3379;SDS011;1703;51.964;7.642;2023-03-20T03:15:53;34.97;;;20.20;;
3379;SDS011;1703;51.964;7.642;2023-03-20T03:18:27;37.37;;;21.83;;
3379;SDS011;1703;51.964;7.642;2023-03-20T03:20:58;30.50;;;19.30;;
3379;SDS011;1703;51.964;7.642;2023-03-20T03:23:31;31.83;;;19.50;;
3379;SDS011;1703;51.964;7.642;2023-03-20T03:26:01;38.20;;;19.63;;
3379;SDS011;1703;51.964;7.642;2023-03-20T03:28:32;30.30;;;16.70;;
3379;SDS011;1703;51.964;7.642;2023-03-20T03:31:03;33.37;;;19.67;;
3379;SDS011;1703;51.964;7.642;2023-03-20T03:33:33;33.50;;;19.40;;
3379;SDS011;1703;51.964;7.642;2023-03-20T03:36:04;35.07;;;19.33;;
3379;SDS011;1703;51.964;7.642;2023-03-20T03:38:41;30.07;;;19.23;;
3379;SDS011;1703;51.964;7.642;2023-03-20T03:41:21;35.00;;;21.40;;
3379;SDS011;1703;51.964;7.642;2023-03-20T03:43:57;32.27;;;18.97;;
3379;SDS011;1703;51.964;7.642;2023-03-20T03:46:33;33.03;;;20.83;;
3379;SDS011;1703;51.964;7.642;2023-03-20T03:49:06;35.83;;;21.73;;
3379;SDS011;1703;51.964;7.642;2023-03-20T03:51:37;38.27;;;22.97;;
3379;SDS011;1703;51.964;7.642;2023-03-20T03:54:12;35.00;;;19.20;;
3379;SDS011;1703;51.964;7.642;2023-03-20T03:56:48;33.63;;;20.73;;
3379;SDS011;1703;51.964;7.642;2023-03-20T03:59:19;35.00;;;23.10;;
3379;SDS011;1703;51.964;7.642;2023-03-20T04:01:51;36.43;;;22.60;;
3379;SDS011;1703;51.964;7.642;2023-03-20T04:04:21;32.20;;;20.17;;
3379;SDS011;1703;51.964;7.642;2023-03-20T04:06:50;39.27;;;23.30;;
3379;SDS011;1703;51.964;7.642;2023-03-20T04:09:18;44.23;;;22.30;;
3379;SDS011;1703;51.964;7.642;2023-03-20T04:11:45;35.80;;;22.00;;
3379;SDS011;1703;51.964;7.642;2023-03-20T04:14:17;39.17;;;22.20;;
3379;SDS011;1703;51.964;7.642;2023-03-20T04:16:45;32.83;;;20.67;;
3379;SDS011;1703;51.964;7.642;2023-03-20T04:19:12;35.33;;;22.60;;
3379;SDS011;1703;51.964;7.642;2023-03-20T04:21:42;37.17;;;22.00;;
3379;SDS011;1703;51.964;7.642;2023-03-20T04:24:10;42.67;;;21.20;;
3379;SDS011;1703;51.964;7.642;2023-03-20T04:26:39;35.43;;;21.63;;
3379;SDS011;1703;51.964;7.642;2023-03-20T04:29:06;37.40;;;21.07;;
3379;SDS011;1703;51.964;7.642;2023-03-20T04:31:54;31.00;;;18.97;;
3379;SDS011;1703;51.964;7.642;2023-03-20T04:34:57;28.27;;;17.87;;
3379;SDS011;1703;51.964;7.642;2023-03-20T04:37:44;28.10;;;17.97;;
3379;SDS011;1703;51.964;7.642;2023-03-20T04:40:11;31.23;;;19.00;;
3379;SDS011;1703;51.964;7.642;2023-03-20T04:42:42;31.67;;;18.53;;
3379;SDS011;1703;51.964;7.642;2023-03-20T04:45:10;35.73;;;19.83;;
3379;SDS011;1703;51.964;7.642;2023-03-20T04:47:37;28.23;;;17.83;;
3379;SDS011;1703;51.964;7.642;2023-03-20T04:50:05;27.83;;;18.00;;
3379;SDS011;1703;51.964;7.642;2023-03-20T04:52:32;30.50;;;18.57;;
3379;SDS011;1703;51.964;7.642;2023-03-20T04:55:00;38.83;;;16.57;;
3379;SDS011;1703;51.964;7.642;2023-03-20T04:57:27;29.63;;;17.77;;
3379;SDS011;1703;51.964;7.642;2023-03-20T04:59:57;31.73;;;18.00;;
3379;SDS011;1703;51.964;7.642;2023-03-20T05:02:24;26.83;;;17.50;;
3379;SDS011;1703;51.964;7.642;2023-03-20T05:04:52;28.33;;;17.90;;
3379;SDS011;1703;51.964;7.642;2023-03-20T05:07:18;28.20;;;17.37;;
3379;SDS011;1703;51.964;7.642;2023-03-20T05:10:00;30.23;;;17.00;;
3379;SDS011;1703;51.964;7.642;2023-03-20T05:12:32;34.20;;;18.47;;
3379;SDS011;1703;51.964;7.642;2023-03-20T05:15:24;29.13;;;18.03;;
3379;SDS011;1703;51.964;7.642;2023-03-20T05:18:06;34.93;;;16.67;;
3379;SDS011;1703;51.964;7.642;2023-03-20T05:20:42;31.47;;;18.97;;
3379;SDS011;1703;51.964;7.642;2023-03-20T05:23:45;28.43;;;15.60;;
3379;SDS011;1703;51.964;7.642;2023-03-20T05:26:35;28.27;;;17.03;;
3379;SDS011;1703;51.964;7.642;2023-03-20T05:29:17;28.87;;;16.00;;
3379;SDS011;1703;51.964;7.642;2023-03-20T05:32:05;29.00;;;18.27;;
3379;SDS011;1703;51.964;7.642;2023-03-20T05:34:42;27.70;;;16.00;;
3379;SDS011;1703;51.964;7.642;2023-03-20T05:37:18;24.30;;;14.90;;
3379;SDS011;1703;51.964;7.642;2023-03-20T05:40:06;28.30;;;15.93;;
3379;SDS011;1703;51.964;7.642;2023-03-20T05:42:33;26.30;;;15.80;;
3379;SDS011;1703;51.964;7.642;2023-03-20T05:45:00;27.07;;;17.13;;
3379;SDS011;1703;51.964;7.642;2023-03-20T05:47:46;28.97;;;16.10;;
3379;SDS011;1703;51.964;7.642;2023-03-20T05:50:44;26.60;;;15.13;;
3379;SDS011;1703;51.964;7.642;2023-03-20T05:53:19;25.53;;;16.17;;
3379;SDS011;1703;51.964;7.642;2023-03-20T05:56:08;22.33;;;14.60;;
3379;SDS011;1703;51.964;7.642;2023-03-20T05:58:37;22.17;;;13.50;;
3379;SDS011;1703;51.964;7.642;2023-03-20T06:01:23;27.67;;;15.63;;
3379;SDS011;1703;51.964;7.642;2023-03-20T06:04:10;24.17;;;13.77;;
3379;SDS011;1703;51.964;7.642;2023-03-20T06:07:00;19.63;;;14.07;;
3379;SDS011;1703;51.964;7.642;2023-03-20T06:09:27;24.73;;;12.63;;
3379;SDS011;1703;51.964;7.642;2023-03-20T06:11:55;17.93;;;12.43;;
3379;SDS011;1703;51.964;7.642;2023-03-20T06:14:22;21.07;;;13.00;;
3379;SDS011;1703;51.964;7.642;2023-03-20T06:16:55;17.63;;;10.90;;
3379;SDS011;1703;51.964;7.642;2023-03-20T06:19:24;17.53;;;10.67;;
3379;SDS011;1703;51.964;7.642;2023-03-20T06:21:51;15.80;;;10.27;;
3379;SDS011;1703;51.964;7.642;2023-03-20T06:24:19;17.03;;;11.37;;
3379;SDS011;1703;51.964;7.642;2023-03-20T06:26:47;12.83;;;9.13;;
3379;SDS011;1703;51.964;7.642;2023-03-20T06:29:13;20.10;;;12.10;;
3379;SDS011;1703;51.964;7.642;2023-03-20T06:31:41;12.87;;;9.40;;
3379;SDS011;1703;51.964;7.642;2023-03-20T06:34:13;14.10;;;10.10;;
3379;SDS011;1703;51.964;7.642;2023-03-20T06:36:44;14.67;;;9.77;;
3379;SDS011;1703;51.964;7.642;2023-03-20T06:39:17;18.00;;;10.00;;
3379;SDS011;1703;51.964;7.642;2023-03-20T06:41:45;21.57;;;9.30;;
3379;SDS011;1703;51.964;7.642;2023-03-20T06:44:12;16.03;;;9.37;;
3379;SDS011;1703;51.964;7.642;2023-03-20T06:47:02;14.43;;;8.40;;
3379;SDS011;1703;51.964;7.642;2023-03-20T06:49:30;18.13;;;11.23;;
3379;SDS011;1703;51.964;7.642;2023-03-20T06:51:58;17.73;;;10.17;;
3379;SDS011;1703;51.964;7.642;2023-03-20T06:54:25;17.33;;;10.47;;
3379;SDS011;1703;51.964;7.642;2023-03-20T06:56:53;16.93;;;10.47;;
3379;SDS011;1703;51.964;7.642;2023-03-20T06:59:20;14.50;;;10.43;;
3379;SDS011;1703;51.964;7.642;2023-03-20T07:01:49;16.80;;;10.70;;
3379;SDS011;1703;51.964;7.642;2023-03-20T07:04:16;15.13;;;10.23;;
3379;SDS011;1703;51.964;7.642;2023-03-20T07:06:48;16.97;;;10.33;;
3379;SDS011;1703;51.964;7.642;2023-03-20T07:09:16;13.43;;;9.23;;
3379;SDS011;1703;51.964;7.642;2023-03-20T07:11:43;15.90;;;8.30;;
3379;SDS011;1703;51.964;7.642;2023-03-20T07:14:11;16.73;;;9.30;;
3379;SDS011;1703;51.964;7.642;2023-03-20T07:16:58;15.43;;;10.50;;
3379;SDS011;1703;51.964;7.642;2023-03-20T07:19:25;17.20;;;10.30;;
3379;SDS011;1703;51.964;7.642;2023-03-20T07:21:56;10.70;;;9.40;;
3379;SDS011;1703;51.964;7.642;2023-03-20T07:24:31;15.33;;;7.67;;
3379;SDS011;1703;51.964;7.642;2023-03-20T07:26:58;16.47;;;8.67;;
3379;SDS011;1703;51.964;7.642;2023-03-20T07:29:25;15.73;;;8.50;;
3379;SDS011;1703;51.964;7.642;2023-03-20T07:31:53;14.33;;;8.80;;
3379;SDS011;1703;51.964;7.642;2023-03-20T07:34:27;11.97;;;8.50;;
3379;SDS011;1703;51.964;7.642;2023-03-20T07:36:55;14.33;;;7.50;;
3379;SDS011;1703;51.964;7.642;2023-03-20T07:39:22;13.27;;;8.73;;
3379;SDS011;1703;51.964;7.642;2023-03-20T07:42:01;15.70;;;9.03;;
3379;SDS011;1703;51.964;7.642;2023-03-20T07:44:41;22.40;;;8.70;;
3379;SDS011;1703;51.964;7.642;2023-03-20T07:47:09;15.07;;;7.70;;
3379;SDS011;1703;51.964;7.642;2023-03-20T07:49:36;19.80;;;9.80;;
3379;SDS011;1703;51.964;7.642;2023-03-20T07:52:02;16.23;;;8.67;;
3379;SDS011;1703;51.964;7.642;2023-03-20T07:54:30;17.13;;;9.00;;
3379;SDS011;1703;51.964;7.642;2023-03-20T07:56:56;22.23;;;9.23;;
3379;SDS011;1703;51.964;7.642;2023-03-20T07:59:25;18.70;;;8.20;;
3379;SDS011;1703;51.964;7.642;2023-03-20T08:01:51;10.90;;;8.50;;
3379;SDS011;1703;51.964;7.642;2023-03-20T08:04:18;11.27;;;8.00;;
3379;SDS011;1703;51.964;7.642;2023-03-20T08:06:46;11.20;;;7.77;;
3379;SDS011;1703;51.964;7.642;2023-03-20T08:09:13;14.13;;;8.70;;
3379;SDS011;1703;51.964;7.642;2023-03-20T08:11:40;16.30;;;8.30;;
3379;SDS011;1703;51.964;7.642;2023-03-20T08:14:07;16.50;;;9.40;;
3379;SDS011;1703;51.964;7.642;2023-03-20T08:16:35;12.87;;;7.80;;
3379;SDS011;1703;51.964;7.642;2023-03-20T08:19:02;18.13;;;8.43;;
3379;SDS011;1703;51.964;7.642;2023-03-20T08:21:30;15.63;;;8.97;;
3379;SDS011;1703;51.964;7.642;2023-03-20T08:23:57;15.00;;;8.50;;
3379;SDS011;1703;51.964;7.642;2023-03-20T08:29:23;13.43;;;8.50;;
3379;SDS011;1703;51.964;7.642;2023-03-20T08:31:57;14.30;;;7.00;;
3379;SDS011;1703;51.964;7.642;2023-03-20T08:34:29;14.50;;;7.60;;
3379;SDS011;1703;51.964;7.642;2023-03-20T08:36:59;23.27;;;8.23;;
3379;SDS011;1703;51.964;7.642;2023-03-20T08:39:29;19.73;;;7.70;;
3379;SDS011;1703;51.964;7.642;2023-03-20T08:42:00;14.17;;;7.70;;
3379;SDS011;1703;51.964;7.642;2023-03-20T08:44:29;13.00;;;6.57;;
3379;SDS011;1703;51.964;7.642;2023-03-20T08:46:59;14.47;;;7.03;;
3379;SDS011;1703;51.964;7.642;2023-03-20T08:49:28;10.40;;;7.27;;
3379;SDS011;1703;51.964;7.642;2023-03-20T08:51:55;13.47;;;5.63;;
3379;SDS011;1703;51.964;7.642;2023-03-20T08:54:21;13.77;;;6.83;;
3379;SDS011;1703;51.964;7.642;2023-03-20T08:56:51;11.10;;;6.10;;
3379;SDS011;1703;51.964;7.642;2023-03-20T08:59:18;11.53;;;6.20;;
3379;SDS011;1703;51.964;7.642;2023-03-20T09:01:45;10.67;;;5.77;;
3379;SDS011;1703;51.964;7.642;2023-03-20T09:04:16;8.50;;;4.40;;
3379;SDS011;1703;51.964;7.642;2023-03-20T09:06:43;18.13;;;5.40;;
3379;SDS011;1703;51.964;7.642;2023-03-20T09:09:10;10.67;;;5.23;;
3379;SDS011;1703;51.964;7.642;2023-03-20T09:11:40;11.97;;;5.70;;
3379;SDS011;1703;51.964;7.642;2023-03-20T09:14:07;9.53;;;4.73;;
3379;SDS011;1703;51.964;7.642;2023-03-20T09:16:34;6.63;;;4.80;;
3379;SDS011;1703;51.964;7.642;2023-03-20T09:19:01;7.50;;;4.93;;
3379;SDS011;1703;51.964;7.642;2023-03-20T09:21:30;6.67;;;4.53;;
3379;SDS011;1703;51.964;7.642;2023-03-20T09:23:58;8.20;;;4.03;;
3379;SDS011;1703;51.964;7.642;2023-03-20T09:26:25;7.90;;;5.30;;
3379;SDS011;1703;51.964;7.642;2023-03-20T09:28:52;8.70;;;5.20;;
3379;SDS011;1703;51.964;7.642;2023-03-20T09:31:19;8.63;;;3.87;;
3379;SDS011;1703;51.964;7.642;2023-03-20T09:33:47;10.63;;;4.10;;
3379;SDS011;1703;51.964;7.642;2023-03-20T09:36:14;6.50;;;3.63;;
3379;SDS011;1703;51.964;7.642;2023-03-20T09:38:51;3.77;;;3.03;;
3379;SDS011;1703;51.964;7.642;2023-03-20T09:41:18;6.70;;;2.90;;
3379;SDS011;1703;51.964;7.642;2023-03-20T09:43:53;5.90;;;3.10;;
3379;SDS011;1703;51.964;7.642;2023-03-20T09:46:37;6.03;;;3.40;;
3379;SDS011;1703;51.964;7.642;2023-03-20T09:49:23;5.60;;;3.57;;
3379;SDS011;1703;51.964;7.642;2023-03-20T09:52:03;7.37;;;3.17;;
3379;SDS011;1703;51.964;7.642;2023-03-20T09:54:46;6.43;;;3.90;;
3379;SDS011;1703;51.964;7.642;2023-03-20T09:57:18;7.70;;;2.80;;
3379;SDS011;1703;51.964;7.642;2023-03-20T09:59:52;5.87;;;3.60;;
3379;SDS011;1703;51.964;7.642;2023-03-20T10:02:24;4.40;;;2.97;;
3379;SDS011;1703;51.964;7.642;2023-03-20T10:05:01;5.70;;;2.60;;
3379;SDS011;1703;51.964;7.642;2023-03-20T10:07:30;3.43;;;2.70;;
3379;SDS011;1703;51.964;7.642;2023-03-20T10:09:58;9.50;;;2.87;;
3379;SDS011;1703;51.964;7.642;2023-03-20T10:12:33;10.80;;;3.70;;
3379;SDS011;1703;51.964;7.642;2023-03-20T10:15:16;4.07;;;2.57;;
3379;SDS011;1703;51.964;7.642;2023-03-20T10:17:52;12.87;;;5.00;;
3379;SDS011;1703;51.964;7.642;2023-03-20T10:20:28;5.60;;;2.77;;
3379;SDS011;1703;51.964;7.642;2023-03-20T10:23:01;3.47;;;2.80;;
3379;SDS011;1703;51.964;7.642;2023-03-20T10:25:42;15.03;;;3.70;;
3379;SDS011;1703;51.964;7.642;2023-03-20T10:28:18;4.43;;;3.50;;
3379;SDS011;1703;51.964;7.642;2023-03-20T10:30:56;8.43;;;3.20;;
3379;SDS011;1703;51.964;7.642;2023-03-20T10:33:41;5.97;;;3.37;;
3379;SDS011;1703;51.964;7.642;2023-03-20T10:36:25;5.53;;;2.70;;
3379;SDS011;1703;51.964;7.642;2023-03-20T10:39:07;3.10;;;2.77;;
3379;SDS011;1703;51.964;7.642;2023-03-20T10:41:40;7.70;;;2.87;;
3379;SDS011;1703;51.964;7.642;2023-03-20T10:44:18;3.33;;;2.80;;
3379;SDS011;1703;51.964;7.642;2023-03-20T10:46:53;4.30;;;2.00;;
3379;SDS011;1703;51.964;7.642;2023-03-20T10:49:29;3.97;;;2.47;;
3379;SDS011;1703;51.964;7.642;2023-03-20T10:52:08;5.43;;;2.87;;
3379;SDS011;1703;51.964;7.642;2023-03-20T10:54:39;3.80;;;2.70;;
3379;SDS011;1703;51.964;7.642;2023-03-20T10:57:13;5.70;;;2.20;;
3379;SDS011;1703;51.964;7.642;2023-03-20T10:59:47;4.67;;;2.40;;
3379;SDS011;1703;51.964;7.642;2023-03-20T11:02:17;5.70;;;2.50;;
3379;SDS011;1703;51.964;7.642;2023-03-20T11:04:45;8.90;;;3.23;;
3379;SDS011;1703;51.964;7.642;2023-03-20T11:07:15;2.60;;;2.10;;
3379;SDS011;1703;51.964;7.642;2023-03-20T11:09:57;2.83;;;2.60;;
3379;SDS011;1703;51.964;7.642;2023-03-20T11:12:45;5.33;;;2.10;;
3379;SDS011;1703;51.964;7.642;2023-03-20T11:15:18;4.77;;;2.40;;
3379;SDS011;1703;51.964;7.642;2023-03-20T11:17:52;2.13;;;1.93;;
3379;SDS011;1703;51.964;7.642;2023-03-20T11:20:20;10.93;;;3.63;;
3379;SDS011;1703;51.964;7.642;2023-03-20T11:22:47;5.27;;;1.90;;
3379;SDS011;1703;51.964;7.642;2023-03-20T11:25:21;3.53;;;2.30;;
3379;SDS011;1703;51.964;7.642;2023-03-20T11:27:55;3.27;;;2.53;;
3379;SDS011;1703;51.964;7.642;2023-03-20T11:30:23;2.93;;;2.23;;
3379;SDS011;1703;51.964;7.642;2023-03-20T11:32:53;3.80;;;2.40;;
3379;SDS011;1703;51.964;7.642;2023-03-20T11:35:25;4.77;;;2.37;;
3379;SDS011;1703;51.964;7.642;2023-03-20T11:38:05;3.80;;;2.07;;
3379;SDS011;1703;51.964;7.642;2023-03-20T11:40:35;12.40;;;3.27;;
3379;SDS011;1703;51.964;7.642;2023-03-20T11:43:07;4.80;;;2.30;;
3379;SDS011;1703;51.964;7.642;2023-03-20T11:45:37;3.87;;;2.63;;
3379;SDS011;1703;51.964;7.642;2023-03-20T11:48:05;10.77;;;2.73;;
3379;SDS011;1703;51.964;7.642;2023-03-20T11:50:41;3.93;;;2.30;;
3379;SDS011;1703;51.964;7.642;2023-03-20T11:53:18;3.47;;;2.10;;
3379;SDS011;1703;51.964;7.642;2023-03-20T11:55:57;8.03;;;2.43;;
3379;SDS011;1703;51.964;7.642;2023-03-20T11:58:29;4.87;;;2.70;;
3379;SDS011;1703;51.964;7.642;2023-03-20T12:00:56;6.73;;;2.50;;
3379;SDS011;1703;51.964;7.642;2023-03-20T12:03:39;6.10;;;2.00;;
3379;SDS011;1703;51.964;7.642;2023-03-20T12:06:20;2.40;;;2.17;;
3379;SDS011;1703;51.964;7.642;2023-03-20T12:08:50;5.50;;;2.57;;
3379;SDS011;1703;51.964;7.642;2023-03-20T12:11:30;2.60;;;2.23;;
3379;SDS011;1703;51.964;7.642;2023-03-20T12:14:14;6.77;;;2.87;;
3379;SDS011;1703;51.964;7.642;2023-03-20T12:16:44;6.83;;;2.20;;
3379;SDS011;1703;51.964;7.642;2023-03-20T12:19:16;2.10;;;1.90;;
3379;SDS011;1703;51.964;7.642;2023-03-20T12:21:47;6.13;;;2.70;;
3379;SDS011;1703;51.964;7.642;2023-03-20T12:24:24;8.13;;;2.37;;
3379;SDS011;1703;51.964;7.642;2023-03-20T12:27:04;3.00;;;2.00;;
3379;SDS011;1703;51.964;7.642;2023-03-20T12:29:53;5.30;;;2.93;;
3379;SDS011;1703;51.964;7.642;2023-03-20T12:32:26;3.40;;;2.07;;
3379;SDS011;1703;51.964;7.642;2023-03-20T12:35:04;6.30;;;3.17;;
3379;SDS011;1703;51.964;7.642;2023-03-20T12:37:38;5.20;;;2.87;;
3379;SDS011;1703;51.964;7.642;2023-03-20T12:40:10;6.20;;;3.70;;
3379;SDS011;1703;51.964;7.642;2023-03-20T12:42:42;2.97;;;2.60;;
3379;SDS011;1703;51.964;7.642;2023-03-20T12:45:20;8.37;;;2.77;;
3379;SDS011;1703;51.964;7.642;2023-03-20T12:48:00;6.00;;;2.23;;
3379;SDS011;1703;51.964;7.642;2023-03-20T12:50:44;6.33;;;2.43;;
3379;SDS011;1703;51.964;7.642;2023-03-20T12:53:21;6.33;;;2.93;;
3379;SDS011;1703;51.964;7.642;2023-03-20T12:56:01;5.60;;;2.77;;
3379;SDS011;1703;51.964;7.642;2023-03-20T12:58:40;5.97;;;3.30;;
3379;SDS011;1703;51.964;7.642;2023-03-20T13:01:15;7.17;;;3.60;;
3379;SDS011;1703;51.964;7.642;2023-03-20T13:03:51;3.73;;;2.50;;
3379;SDS011;1703;51.964;7.642;2023-03-20T13:06:36;6.30;;;3.10;;
3379;SDS011;1703;51.964;7.642;2023-03-20T13:12:07;4.57;;;3.10;;
3379;SDS011;1703;51.964;7.642;2023-03-20T13:14:42;8.80;;;3.60;;
3379;SDS011;1703;51.964;7.642;2023-03-20T13:17:20;8.27;;;3.60;;
3379;SDS011;1703;51.964;7.642;2023-03-20T13:19:56;9.03;;;3.30;;
3379;SDS011;1703;51.964;7.642;2023-03-20T13:22:38;6.03;;;3.43;;
3379;SDS011;1703;51.964;7.642;2023-03-20T13:25:16;4.73;;;3.30;;
3379;SDS011;1703;51.964;7.642;2023-03-20T13:28:22;6.40;;;2.93;;
3379;SDS011;1703;51.964;7.642;2023-03-20T13:31:15;4.07;;;3.33;;
3379;SDS011;1703;51.964;7.642;2023-03-20T13:33:58;4.87;;;2.53;;
3379;SDS011;1703;51.964;7.642;2023-03-20T13:36:36;4.73;;;2.80;;
3379;SDS011;1703;51.964;7.642;2023-03-20T13:39:13;9.80;;;2.63;;
3379;SDS011;1703;51.964;7.642;2023-03-20T13:41:43;4.03;;;2.80;;
3379;SDS011;1703;51.964;7.642;2023-03-20T13:44:12;4.57;;;2.30;;
3379;SDS011;1703;51.964;7.642;2023-03-20T13:46:45;5.17;;;3.50;;
3379;SDS011;1703;51.964;7.642;2023-03-20T13:49:18;2.83;;;2.63;;
3379;SDS011;1703;51.964;7.642;2023-03-20T13:51:50;7.97;;;2.87;;
3379;SDS011;1703;51.964;7.642;2023-03-20T13:57:24;8.13;;;3.10;;
3379;SDS011;1703;51.964;7.642;2023-03-20T14:00:09;3.93;;;3.20;;
3379;SDS011;1703;51.964;7.642;2023-03-20T14:02:59;9.80;;;2.47;;
3379;SDS011;1703;51.964;7.642;2023-03-20T14:05:38;8.77;;;2.70;;
3379;SDS011;1703;51.964;7.642;2023-03-20T14:08:28;6.90;;;3.60;;
3379;SDS011;1703;51.964;7.642;2023-03-20T14:11:12;5.97;;;2.53;;
3379;SDS011;1703;51.964;7.642;2023-03-20T14:13:56;3.30;;;2.57;;
3379;SDS011;1703;51.964;7.642;2023-03-20T14:16:38;11.03;;;4.37;;
3379;SDS011;1703;51.964;7.642;2023-03-20T14:19:07;5.80;;;3.27;;
3379;SDS011;1703;51.964;7.642;2023-03-20T14:21:44;8.43;;;2.93;;
3379;SDS011;1703;51.964;7.642;2023-03-20T14:24:12;5.57;;;2.97;;
3379;SDS011;1703;51.964;7.642;2023-03-20T14:26:42;3.70;;;3.40;;
3379;SDS011;1703;51.964;7.642;2023-03-20T14:29:31;6.97;;;4.30;;
3379;SDS011;1703;51.964;7.642;2023-03-20T14:38:04;6.60;;;6.00;;
3379;SDS011;1703;51.964;7.642;2023-03-20T14:40:42;10.40;;;6.10;;
3379;SDS011;1703;51.964;7.642;2023-03-20T14:43:19;6.30;;;5.23;;
3379;SDS011;1703;51.964;7.642;2023-03-20T14:45:56;13.13;;;6.53;;
3379;SDS011;1703;51.964;7.642;2023-03-20T14:48:29;7.67;;;6.10;;
3379;SDS011;1703;51.964;7.642;2023-03-20T14:51:15;7.90;;;5.97;;
3379;SDS011;1703;51.964;7.642;2023-03-20T14:53:50;8.27;;;5.30;;
3379;SDS011;1703;51.964;7.642;2023-03-20T14:56:24;9.53;;;6.77;;
3379;SDS011;1703;51.964;7.642;2023-03-20T14:58:55;13.80;;;7.30;;
3379;SDS011;1703;51.964;7.642;2023-03-20T15:01:32;7.80;;;5.80;;
3379;SDS011;1703;51.964;7.642;2023-03-20T15:04:08;6.27;;;5.20;;
3379;SDS011;1703;51.964;7.642;2023-03-20T15:06:48;5.67;;;5.27;;
3379;SDS011;1703;51.964;7.642;2023-03-20T15:09:20;8.30;;;5.63;;
3379;SDS011;1703;51.964;7.642;2023-03-20T15:11:49;11.80;;;4.47;;
3379;SDS011;1703;51.964;7.642;2023-03-20T15:14:17;9.03;;;5.23;;
3379;SDS011;1703;51.964;7.642;2023-03-20T15:16:47;9.73;;;5.10;;
3379;SDS011;1703;51.964;7.642;2023-03-20T15:19:17;4.30;;;4.00;;
3379;SDS011;1703;51.964;7.642;2023-03-20T15:21:45;5.30;;;4.80;;
3379;SDS011;1703;51.964;7.642;2023-03-20T15:24:16;6.47;;;4.83;;
3379;SDS011;1703;51.964;7.642;2023-03-20T15:26:49;6.70;;;5.30;;
3379;SDS011;1703;51.964;7.642;2023-03-20T15:29:18;4.43;;;4.00;;
3379;SDS011;1703;51.964;7.642;2023-03-20T15:31:45;6.50;;;5.40;;
3379;SDS011;1703;51.964;7.642;2023-03-20T15:34:17;6.70;;;4.60;;
3379;SDS011;1703;51.964;7.642;2023-03-20T15:36:47;4.77;;;4.30;;
3379;SDS011;1703;51.964;7.642;2023-03-20T15:39:16;5.80;;;4.07;;
3379;SDS011;1703;51.964;7.642;2023-03-20T15:41:49;5.27;;;4.87;;
3379;SDS011;1703;51.964;7.642;2023-03-20T15:44:19;6.47;;;4.20;;
3379;SDS011;1703;51.964;7.642;2023-03-20T15:46:52;10.03;;;5.50;;
3379;SDS011;1703;51.964;7.642;2023-03-20T15:49:28;9.90;;;5.67;;
3379;SDS011;1703;51.964;7.642;2023-03-20T15:51:57;7.77;;;5.53;;
3379;SDS011;1703;51.964;7.642;2023-03-20T15:54:26;13.10;;;7.43;;
3379;SDS011;1703;51.964;7.642;2023-03-20T15:56:55;8.10;;;5.60;;
3379;SDS011;1703;51.964;7.642;2023-03-20T15:59:25;7.10;;;5.73;;